Arapahoe, North Carolina
Current Conditions -  °F | °C
As of 7:54 PM on Monday 26 Jan 2015 (Local Time) from KNKT Reporting Station
Overcast Overcast  
Wind Chill: 44°   Ceiling: 4300
Heat Index: 48°   Visibility: 10mi
Dew Point: 44°   Wind: 8mph
Humidity: 86%   Direction: 300°WNW
Pressure: 29.61"   Gusts: NA
Location:  35.03°N, 76.83°W
Report Text: KNKT 270054Z 30007KT 10SM FEW035 BKN043 OVC070 09/07 A2961 RMK AO2 SLP024 T00890067 $
Loading
Personal Weather Stations






























Interactive Weather Map New forecast layout! Learn more

10-Day Weather Forecast

Advertisements
Track Severe Weather on mobile